Shengsi, China
Current Conditions -  °F | °C
As of 4:30 PM on Monday 26 Jan 2015 (Local Time) from ZSPD Reporting Station
Haze Haze  
Wind Chill: 40°   Ceiling: 1300
Heat Index: 46°   Visibility: 3mi
Dew Point: 43°   Wind: 13mph
Humidity: 87%   Direction: 20°NNE
Pressure: 30.21"   Gusts: NA
Location:  30.73°N, 122.45°E
Report Text: ZSPD 260830Z 02006MPS 5000 BR BKN013 08/06 Q1023 NOSIG
Loading
Personal Weather Stations






























Interactive Weather Map New forecast layout! Learn more

10-Day Weather Forecast

Advertisements
Track Severe Weather on mobile